Augusta, West Virginia
Current Conditions -  °F | °C
As of 10:53 PM on Wednesday 22 Oct 2014 (Local Time) from KCBE Reporting Station
Overcast Overcast  
Wind Chill: 52°   Ceiling: 2900
Heat Index: 52°   Visibility: 10mi
Dew Point: 41°   Wind: 10mph
Humidity: 67%   Direction: 320°NW
Pressure: 30.12"   Gusts: 21mph
Location:  39.3°N, 78.64°W
Report Text: KCBE 230253Z AUTO 32009G18KT 10SM OVC029 11/05 A3012 RMK AO1
Loading
Personal Weather Stations






























Interactive Weather Map New forecast layout! Learn more

10-Day Weather Forecast

Advertisements
Track Severe Weather on mobile